Bradley International Airport
KBDL : now visible

Airfield :











YOU CAN JOIN US ON...

 
LOGIN :

Register | Disclaimer

   EN    FR    IT 

 









Legend :    VFR   Marginal VFR   IFR   Intensive IFR   Very Intensive IFR
Visi :
Ceiling :
>= 8 km
>= 3000ft
5 to 8 km
1000 to 3000 ft
1500m to 5 km
500 to 1000 ft
800 to 1500m
200 to 500 ft
< 800m
< 200 ft
Symbols :   Thunderstorms  Fog  Heavy snow  Heavy precipitations  Wind > 20 kt






- Airport Elevation : 173 ft
- IATA code : BDL


KBDL - Bradley International

CURRENT METAR :
  • 291751Z 18006KT 10SM BKN110 OVC200 10/02 A3013 RMK AO2 SLP205 T01000022 10100 21006 58041 $

EXPIRED METARs :
  • 291651Z 21005KT 10SM FEW120 BKN150 OVC220 07/01 A3018 RMK AO2 SLP219 T00720011 $
  • 291551Z 17005KT 10SM FEW150 BKN180 OVC200 05/M01 A3022 RMK AO2 PRESFR SLP236 T00501011 $

TAF KBDL
Valid from the 29 at 18:00 until the 31 at 00:00 UTC


291721Z 2918/3024 19011KT P6SM OVC060
FM300000 21008KT P6SM OVC040
FM301000 26003KT P6SM BKN060
FM301700 17005KT P6SM BKN060
KZBW FIR / North America



MET'MAP, your aeronautical weather chart ! - Copyright ORBIFLY December 2007 - Disclaimer

ORBIFLY MET'MAP TEAM :

Programming & Development : Alexandra Zaïnal
Original concept : Baudouin d'Aumeries
Technical & hardware support : Manuel Goepfert
Assistance : Marc-Olivier Méhu




SOURCES & CREDITS :

   NOAA       Earth
Advisory